Time;durP1;ratioP1;P1;durP2;ratioP2;P2;SDS_P1;SDS_P2;PMS_P1;PMS_P2;Temp;Humidity;BMP_temperature;BMP_pressure;BME280_temperature;BME280_humidity;BME280_pressure;Samples;Min_cycle;Max_cycle;Signal;HPM_P1;HPM_P2
2022/04/08 00:02:20;;;;;;;;;;;7.30;99.90;;;;;;10328323;28;84018;-57
2022/04/08 00:07:27;;;;;;;;;;;7.40;99.90;;;;;;10310455;28;84336;-59
2022/04/08 00:12:28;;;;;;;;;;;7.30;99.90;;;;;;10301174;28;84128;-55
2022/04/08 00:17:28;;;;;;;;;;;7.30;99.90;;;;;;10346203;28;84023;-54
2022/04/08 00:22:29;;;;;;;;;;;7.40;99.90;;;;;;10331035;28;84877;-56
2022/04/08 00:27:30;;;;;;;;;;;7.30;99.90;;;;;;10326225;28;85051;-57
2022/04/08 00:32:33;;;;;;;;;;;7.30;85.50;;;;;;10293862;28;86653;-59
2022/04/08 00:37:34;;;;;;;;;;;7.30;75.90;;;;;;10308601;28;85599;-54
2022/04/08 00:42:36;;;;;;;;;;;7.20;27.80;;;;;;10308262;28;85849;-54
2022/04/08 00:47:37;;;;;;;;;;;7.10;27.10;;;;;;10324445;28;84595;-58
2022/04/08 00:52:40;;;;;;;;;;;7.10;4.80;;;;;;10325589;28;84765;-58
2022/04/08 00:57:41;;;;;;;;;;;7.00;59.80;;;;;;10324560;28;84323;-59
2022/04/08 01:02:41;;;;;;;;;;;7.00;67.30;;;;;;10325447;28;84879;-52
2022/04/08 01:07:42;;;;;;;;;;;7.00;99.90;;;;;;10306452;28;84677;-54
2022/04/08 01:12:43;;;;;;;;;;;6.80;99.90;;;;;;10333063;28;84125;-55
2022/04/08 01:17:44;;;;;;;;;;;6.80;99.90;;;;;;10332353;28;84714;-54
2022/04/08 01:22:45;;;;;;;;;;;6.70;99.90;;;;;;10332341;28;84272;-56
2022/04/08 01:27:45;;;;;;;;;;;6.60;99.90;;;;;;10330793;28;84369;-56
2022/04/08 01:32:47;;;;;;;;;;;6.50;99.90;;;;;;10313470;28;86184;-54
2022/04/08 01:37:47;;;;;;;;;;;6.50;99.90;;;;;;10330675;28;84222;-56
2022/04/08 01:42:48;;;;;;;;;;;6.40;99.90;;;;;;10330567;28;84160;-55
2022/04/08 01:47:48;;;;;;;;;;;6.40;99.90;;;;;;10330086;28;85267;-55
2022/04/08 01:52:49;;;;;;;;;;;6.30;99.90;;;;;;10330711;28;89003;-55
2022/04/08 01:57:51;;;;;;;;;;;6.30;99.90;;;;;;10330204;28;84902;-56
2022/04/08 02:02:52;;;;;;;;;;;6.30;99.90;;;;;;10331077;28;84951;-53
2022/04/08 02:07:53;;;;;;;;;;;6.30;99.90;;;;;;10329364;28;84925;-56
2022/04/08 02:12:53;;;;;;;;;;;6.20;99.90;;;;;;10424890;22;85240;-46
2022/04/08 02:17:54;;;;;;;;;;;6.10;99.90;;;;;;10413258;28;84767;-50
2022/04/08 02:22:55;;;;;;;;;;;6.10;99.90;;;;;;10378236;28;84231;-46
2022/04/08 02:27:55;;;;;;;;;;;6.00;99.90;;;;;;10363974;28;84702;-45
2022/04/08 02:32:57;;;;;;;;;;;6.10;99.90;;;;;;10318346;28;84869;-46
2022/04/08 02:37:57;;;;;;;;;;;6.10;99.90;;;;;;10346690;28;84275;-44
2022/04/08 02:42:58;;;;;;;;;;;6.10;99.90;;;;;;10376248;28;84933;-45
2022/04/08 02:47:59;;;;;;;;;;;6.10;99.90;;;;;;10370521;28;85326;-47
2022/04/08 02:52:59;;;;;;;;;;;6.00;99.90;;;;;;10367278;28;85083;-47
2022/04/08 02:58:00;;;;;;;;;;;6.00;99.90;;;;;;10375932;28;84685;-45
2022/04/08 03:03:00;;;;;;;;;;;5.90;99.90;;;;;;10378822;28;87938;-45
2022/04/08 03:08:01;;;;;;;;;;;5.90;99.90;;;;;;10369720;28;84758;-48
2022/04/08 03:13:02;;;;;;;;;;;5.90;99.90;;;;;;10369687;28;85006;-47
2022/04/08 03:18:02;;;;;;;;;;;5.90;99.90;;;;;;10367318;28;87115;-46
2022/04/08 03:23:03;;;;;;;;;;;5.90;99.90;;;;;;10369457;28;84323;-46
2022/04/08 03:28:04;;;;;;;;;;;5.80;99.90;;;;;;10361787;28;85048;-47
2022/04/08 03:33:04;;;;;;;;;;;5.80;99.90;;;;;;10390724;28;84859;-49
2022/04/08 03:38:05;;;;;;;;;;;5.70;99.90;;;;;;10350518;28;85863;-47
2022/04/08 03:43:05;;;;;;;;;;;5.60;99.90;;;;;;10368623;28;84217;-47
2022/04/08 03:48:09;;;;;;;;;;;5.60;99.90;;;;;;10353091;28;85093;-47
2022/04/08 03:53:12;;;;;;;;;;;5.60;97.00;;;;;;10369502;28;84967;-48
2022/04/08 03:58:13;;;;;;;;;;;5.50;92.60;;;;;;10368472;28;84958;-48
2022/04/08 04:03:14;;;;;;;;;;;5.40;67.20;;;;;;10370504;28;84309;-46
2022/04/08 04:08:18;;;;;;;;;;;5.40;91.10;;;;;;10371524;28;84712;-46
2022/04/08 04:13:18;;;;;;;;;;;5.30;75.30;;;;;;10377292;28;84940;-46
2022/04/08 04:18:19;;;;;;;;;;;5.20;99.90;;;;;;10378193;28;85291;-47
2022/04/08 04:23:19;;;;;;;;;;;5.20;99.90;;;;;;10369859;28;84886;-48
2022/04/08 04:28:20;;;;;;;;;;;5.20;99.90;;;;;;10349889;28;84340;-49
2022/04/08 04:33:21;;;;;;;;;;;5.20;99.90;;;;;;10367668;28;85607;-46
2022/04/08 04:38:22;;;;;;;;;;;5.20;99.90;;;;;;10367803;28;84910;-50
2022/04/08 04:43:22;;;;;;;;;;;5.20;99.90;;;;;;10366858;28;84886;-47
2022/04/08 04:48:23;;;;;;;;;;;5.20;99.90;;;;;;10361454;28;86284;-47
2022/04/08 04:53:24;;;;;;;;;;;5.10;99.90;;;;;;10368386;28;85784;-48
2022/04/08 04:58:24;;;;;;;;;;;5.10;99.90;;;;;;10376488;28;84698;-51
2022/04/08 05:03:25;;;;;;;;;;;5.00;99.90;;;;;;10391985;28;84710;-46
2022/04/08 05:08:25;;;;;;;;;;;5.10;99.90;;;;;;10399286;28;84208;-47
2022/04/08 05:13:26;;;;;;;;;;;5.10;99.90;;;;;;10367323;28;84996;-47
2022/04/08 05:18:27;;;;;;;;;;;5.10;99.90;;;;;;10357534;28;84112;-47
2022/04/08 05:23:29;;;;;;;;;;;5.20;99.90;;;;;;10325430;28;85318;-49
2022/04/08 05:28:29;;;;;;;;;;;5.20;99.90;;;;;;10349272;28;84539;-44
2022/04/08 05:33:30;;;;;;;;;;;5.30;99.90;;;;;;10334151;28;86053;-53
2022/04/08 05:38:30;;;;;;;;;;;5.30;99.90;;;;;;10343815;28;84803;-59
2022/04/08 05:43:31;;;;;;;;;;;5.50;99.90;;;;;;10357718;28;84862;-58
2022/04/08 05:48:32;;;;;;;;;;;5.50;62.60;;;;;;10364561;28;84858;-57
2022/04/08 05:53:33;;;;;;;;;;;5.60;40.40;;;;;;10355589;28;85205;-58
2022/04/08 05:58:34;;;;;;;;;;;5.70;1.70;;;;;;10352900;28;84596;-56
2022/04/08 06:03:34;;;;;;;;;;;5.60;13.60;;;;;;10362561;28;84241;-58
2022/04/08 06:08:35;;;;;;;;;;;5.60;48.00;;;;;;10367005;28;84816;-56
2022/04/08 06:13:35;;;;;;;;;;;5.70;54.70;;;;;;10352739;28;84004;-61
2022/04/08 06:18:36;;;;;;;;;;;5.80;38.30;;;;;;10352024;28;84122;-58
2022/04/08 06:23:36;;;;;;;;;;;6.00;12.60;;;;;;10349621;28;84998;-57
2022/04/08 06:28:37;;;;;;;;;;;6.10;1.00;;;;;;10345779;28;84505;-53
2022/04/08 06:33:37;;;;;;;;;;;6.30;1.00;;;;;;10361333;28;84906;-52
2022/04/08 06:38:38;;;;;;;;;;;6.50;1.00;;;;;;10351245;28;84274;-58
2022/04/08 06:43:38;;;;;;;;;;;6.70;1.00;;;;;;10348754;28;84905;-58
2022/04/08 06:48:39;;;;;;;;;;;7.10;1.00;;;;;;10351298;28;84838;-60
2022/04/08 06:53:39;;;;;;;;;;;7.30;1.00;;;;;;10350002;28;85115;-61
2022/04/08 06:58:40;;;;;;;;;;;7.40;1.00;;;;;;10347890;28;84489;-61
2022/04/08 07:03:41;;;;;;;;;;;7.50;1.00;;;;;;10333726;28;84455;-62
2022/04/08 07:08:41;;;;;;;;;;;7.70;1.00;;;;;;10379280;28;84794;-56
2022/04/08 07:13:42;;;;;;;;;;;8.20;1.00;;;;;;10384770;28;88441;-55
2022/04/08 07:18:42;;;;;;;;;;;8.20;1.00;;;;;;10371904;28;84862;-61
2022/04/08 07:23:43;;;;;;;;;;;8.50;1.00;;;;;;10377166;28;84570;-63
2022/04/08 07:28:44;;;;;;;;;;;9.00;1.00;;;;;;10374296;28;84992;-64
2022/04/08 07:33:45;;;;;;;;;;;9.50;1.00;;;;;;10374937;28;84304;-60
2022/04/08 07:38:45;;;;;;;;;;;9.70;99.90;;;;;;10366754;28;84822;-60
2022/04/08 07:43:46;;;;;;;;;;;10.10;99.90;;;;;;10376074;28;84062;-62
2022/04/08 07:48:46;;;;;;;;;;;10.30;99.90;;;;;;10391896;28;86084;-58
2022/04/08 07:53:47;;;;;;;;;;;10.60;99.90;;;;;;10399820;28;84434;-58
2022/04/08 07:58:48;;;;;;;;;;;10.30;27.90;;;;;;10390606;28;84969;-60
2022/04/08 08:03:48;;;;;;;;;;;10.50;19.20;;;;;;10381676;28;84410;-49
2022/04/08 08:08:50;;;;;;;;;;;10.40;1.00;;;;;;10368199;28;87714;-49
2022/04/08 08:13:51;;;;;;;;;;;10.10;6.40;;;;;;10423104;22;85245;-53
2022/04/08 08:18:56;;;;;;;;;;;10.10;3.30;;;;;;10403812;28;85942;-57
2022/04/08 08:23:57;;;;;;;;;;;10.20;1.00;;;;;;10370245;28;84931;-59
2022/04/08 08:28:58;;;;;;;;;;;9.90;14.00;;;;;;10373401;28;84436;-57
2022/04/08 08:33:58;;;;;;;;;;;9.80;1.00;;;;;;10371309;28;84136;-62
2022/04/08 08:39:00;;;;;;;;;;;9.50;1.00;;;;;;10366177;28;84156;-62
2022/04/08 08:44:00;;;;;;;;;;;9.50;90.20;;;;;;10371339;28;86208;-58
2022/04/08 08:49:02;;;;;;;;;;;10.00;1.00;;;;;;10377103;28;85118;-51
2022/04/08 08:54:02;;;;;;;;;;;10.00;1.00;;;;;;10369552;28;84887;-59
2022/04/08 08:59:03;;;;;;;;;;;10.40;1.00;;;;;;10357420;28;84909;-60
2022/04/08 09:04:03;;;;;;;;;;;10.60;99.90;;;;;;10369166;28;84772;-62
2022/04/08 09:09:04;;;;;;;;;;;10.90;99.90;;;;;;10367676;28;85925;-64
2022/04/08 09:14:05;;;;;;;;;;;10.90;1.00;;;;;;10375835;28;85080;-60
2022/04/08 09:19:13;;;;;;;;;;;10.40;1.00;;;;;;10367666;28;84220;-60
2022/04/08 09:24:13;;;;;;;;;;;10.60;1.00;;;;;;10368685;28;84943;-60
2022/04/08 09:29:14;;;;;;;;;;;10.90;1.00;;;;;;10368651;28;84296;-58
2022/04/08 09:34:16;;;;;;;;;;;11.10;1.00;;;;;;10393167;28;84753;-52
2022/04/08 09:39:17;;;;;;;;;;;11.00;1.00;;;;;;10365882;28;84835;-55
2022/04/08 09:44:22;;;;;;;;;;;10.80;1.00;;;;;;10377485;28;84201;-59
2022/04/08 09:49:22;;;;;;;;;;;10.60;1.00;;;;;;10378326;28;84852;-57
2022/04/08 09:54:26;;;;;;;;;;;10.60;1.00;;;;;;10394016;28;85134;-63
2022/04/08 09:59:28;;;;;;;;;;;10.80;1.00;;;;;;10375258;28;84165;-59
2022/04/08 10:04:29;;;;;;;;;;;11.00;1.00;;;;;;10357396;28;84992;-55
2022/04/08 10:09:32;;;;;;;;;;;11.10;1.00;;;;;;10374118;28;84246;-56
2022/04/08 10:14:44;;;;;;;;;;;11.30;99.90;;;;;;10355922;28;84867;-51
2022/04/08 10:19:45;;;;;;;;;;;11.50;99.90;;;;;;10370609;28;85002;-56
2022/04/08 10:24:53;;;;;;;;;;;11.70;1.00;;;;;;10374730;28;84109;-58
2022/04/08 10:29:54;;;;;;;;;;;11.40;1.00;;;;;;10374659;28;84752;-54
2022/04/08 10:34:55;;;;;;;;;;;11.40;1.00;;;;;;10370507;28;84992;-50
2022/04/08 10:40:02;;;;;;;;;;;11.40;1.00;;;;;;10353093;28;84896;-52
2022/04/08 10:45:13;;;;;;;;;;;11.40;1.00;;;;;;10372114;28;84834;-49
2022/04/08 10:50:22;;;;;;;;;;;11.30;1.00;;;;;;10370864;28;84259;-52
2022/04/08 10:55:23;;;;;;;;;;;11.00;1.00;;;;;;10369207;28;84247;-48
2022/04/08 11:00:25;;;;;;;;;;;10.90;1.00;;;;;;10370482;28;84369;-53
2022/04/08 11:05:26;;;;;;;;;;;11.00;1.00;;;;;;10391351;28;84219;-52
2022/04/08 11:10:27;;;;;;;;;;;11.20;1.00;;;;;;10371244;28;84117;-51
2022/04/08 11:15:28;;;;;;;;;;;11.10;1.00;;;;;;10372263;28;86750;-49
2022/04/08 11:20:29;;;;;;;;;;;11.30;1.00;;;;;;10355327;28;86318;-50
2022/04/08 11:25:30;;;;;;;;;;;11.60;1.00;;;;;;10364980;28;84941;-53
2022/04/08 11:30:31;;;;;;;;;;;11.40;1.00;;;;;;10385498;28;84718;-54
2022/04/08 11:35:32;;;;;;;;;;;11.20;1.00;;;;;;10370518;28;84763;-50
2022/04/08 11:40:33;;;;;;;;;;;10.90;1.00;;;;;;10367940;28;84845;-57
2022/04/08 11:45:33;;;;;;;;;;;11.00;1.00;;;;;;10354887;28;86461;-49
2022/04/08 11:50:37;;;;;;;;;;;10.70;1.00;;;;;;10353803;28;84961;-52
2022/04/08 11:55:37;;;;;;;;;;;10.90;1.00;;;;;;10369083;28;84109;-48
2022/04/08 12:00:38;;;;;;;;;;;11.00;99.90;;;;;;10349272;28;86811;-49
2022/04/08 12:05:44;;;;;;;;;;;10.90;1.00;;;;;;10378958;28;84752;-51
2022/04/08 12:10:45;;;;;;;;;;;11.30;1.00;;;;;;10370608;28;84866;-53
2022/04/08 12:15:48;;;;;;;;;;;11.30;1.00;;;;;;10369937;28;84854;-52
2022/04/08 12:21:00;;;;;;;;;;;11.30;99.90;;;;;;10371847;28;85593;-49
2022/04/08 12:26:05;;;;;;;;;;;11.10;1.00;;;;;;10366858;28;84603;-50
2022/04/08 12:31:17;;;;;;;;;;;11.00;1.00;;;;;;10379635;28;84507;-48
2022/04/08 12:36:19;;;;;;;;;;;10.90;99.90;;;;;;10370492;28;84932;-49
2022/04/08 12:41:20;;;;;;;;;;;10.80;99.90;;;;;;10356574;28;86784;-50
2022/04/08 12:46:21;;;;;;;;;;;10.80;1.00;;;;;;10372239;28;84691;-52
2022/04/08 12:51:22;;;;;;;;;;;10.90;99.90;;;;;;10351469;28;85258;-48
2022/04/08 12:56:25;;;;;;;;;;;11.00;99.90;;;;;;10348824;28;86276;-50
2022/04/08 13:01:27;;;;;;;;;;;10.90;1.00;;;;;;10349939;28;84190;-49
2022/04/08 13:06:27;;;;;;;;;;;10.70;99.90;;;;;;10348246;28;84247;-47
2022/04/08 13:11:28;;;;;;;;;;;10.60;99.90;;;;;;10366922;28;84909;-48
2022/04/08 13:16:29;;;;;;;;;;;10.60;99.90;;;;;;10366707;28;84771;-48
2022/04/08 13:21:29;;;;;;;;;;;10.60;99.90;;;;;;10348852;28;84844;-52
2022/04/08 13:26:30;;;;;;;;;;;10.50;1.00;;;;;;10350117;28;84788;-50
2022/04/08 13:31:31;;;;;;;;;;;10.50;99.90;;;;;;10356512;28;84971;-52
2022/04/08 13:36:31;;;;;;;;;;;10.40;1.00;;;;;;10366206;28;84850;-48
2022/04/08 13:41:32;;;;;;;;;;;10.50;99.90;;;;;;10353919;28;84837;-49
2022/04/08 13:46:33;;;;;;;;;;;10.60;1.00;;;;;;10387689;28;84030;-53
2022/04/08 13:51:33;;;;;;;;;;;10.70;1.00;;;;;;10361778;28;84454;-49
2022/04/08 13:56:34;;;;;;;;;;;11.00;1.00;;;;;;10380601;28;84184;-52
2022/04/08 14:01:34;;;;;;;;;;;10.70;84.10;;;;;;10357763;28;85317;-51
2022/04/08 14:06:35;;;;;;;;;;;10.80;43.50;;;;;;10339992;28;84633;-47
2022/04/08 14:11:35;;;;;;;;;;;10.90;27.10;;;;;;10321432;22;86320;-45
2022/04/08 14:16:37;;;;;;;;;;;10.90;99.90;;;;;;10324112;28;85097;-47
2022/04/08 14:21:37;;;;;;;;;;;10.70;99.90;;;;;;10338013;28;84718;-48
2022/04/08 14:26:40;;;;;;;;;;;10.70;1.00;;;;;;10328478;28;84929;-45
2022/04/08 14:31:41;;;;;;;;;;;11.00;1.00;;;;;;10322040;28;84170;-45
2022/04/08 14:36:41;;;;;;;;;;;11.30;99.90;;;;;;10326660;28;84924;-47
2022/04/08 14:41:43;;;;;;;;;;;11.30;1.00;;;;;;10326764;28;85221;-51
2022/04/08 14:46:44;;;;;;;;;;;11.40;1.00;;;;;;10330867;28;84207;-49
2022/04/08 14:51:44;;;;;;;;;;;11.40;1.00;;;;;;10328019;28;84917;-49
2022/04/08 14:56:47;;;;;;;;;;;11.40;1.00;;;;;;10326135;28;85085;-53
2022/04/08 15:01:47;;;;;;;;;;;11.50;1.00;;;;;;10330033;28;84251;-50
2022/04/08 15:06:48;;;;;;;;;;;11.40;1.00;;;;;;10328762;28;84985;-50
2022/04/08 15:11:48;;;;;;;;;;;11.20;1.00;;;;;;10328197;28;85014;-51
2022/04/08 15:16:49;;;;;;;;;;;11.10;1.00;;;;;;10329075;28;84944;-48
2022/04/08 15:21:49;;;;;;;;;;;11.00;1.00;;;;;;10328075;28;84666;-47
2022/04/08 15:26:51;;;;;;;;;;;10.70;99.90;;;;;;10325520;28;85955;-47
2022/04/08 15:31:51;;;;;;;;;;;10.70;99.90;;;;;;10325649;28;84989;-49
2022/04/08 15:36:52;;;;;;;;;;;10.70;1.00;;;;;;10324755;28;86099;-49
2022/04/08 15:41:53;;;;;;;;;;;10.60;1.00;;;;;;10336987;28;84927;-48
2022/04/08 15:46:54;;;;;;;;;;;10.50;1.00;;;;;;10329855;28;85018;-50
2022/04/08 15:51:54;;;;;;;;;;;10.30;24.70;;;;;;10324482;28;85088;-49
2022/04/08 15:56:55;;;;;;;;;;;10.40;1.00;;;;;;10324119;28;86021;-51
2022/04/08 16:01:55;;;;;;;;;;;10.40;1.00;;;;;;10324662;28;84502;-50
2022/04/08 16:06:56;;;;;;;;;;;10.40;1.00;;;;;;10323492;28;85085;-49
2022/04/08 16:11:57;;;;;;;;;;;10.50;1.00;;;;;;10329727;28;84874;-52
2022/04/08 16:16:57;;;;;;;;;;;10.50;99.90;;;;;;10327347;28;84295;-49
2022/04/08 16:21:58;;;;;;;;;;;10.30;99.90;;;;;;10328559;28;84846;-49
2022/04/08 16:26:58;;;;;;;;;;;10.20;1.00;;;;;;10327811;28;84212;-49
2022/04/08 16:31:59;;;;;;;;;;;10.20;1.00;;;;;;10327759;28;84716;-46
2022/04/08 16:36:59;;;;;;;;;;;10.30;1.00;;;;;;10333722;28;84804;-52
2022/04/08 16:42:00;;;;;;;;;;;10.20;1.00;;;;;;10328233;28;93351;-54
2022/04/08 16:47:00;;;;;;;;;;;10.20;1.00;;;;;;10326885;28;85357;-50
2022/04/08 16:52:02;;;;;;;;;;;10.00;99.90;;;;;;10327695;28;85074;-46
2022/04/08 16:57:02;;;;;;;;;;;9.80;99.90;;;;;;10322985;28;84923;-51
2022/04/08 17:02:05;;;;;;;;;;;9.70;99.90;;;;;;10339923;28;85012;-53
2022/04/08 17:07:06;;;;;;;;;;;9.70;1.00;;;;;;10340693;28;84939;-52
2022/04/08 17:12:07;;;;;;;;;;;9.80;1.00;;;;;;10333479;28;84483;-54
2022/04/08 17:17:07;;;;;;;;;;;9.80;1.00;;;;;;10329926;28;84238;-57
2022/04/08 17:22:08;;;;;;;;;;;9.70;1.00;;;;;;10322995;28;86267;-65
2022/04/08 17:27:09;;;;;;;;;;;9.80;1.00;;;;;;10323587;28;84492;-63
2022/04/08 17:32:09;;;;;;;;;;;9.70;1.00;;;;;;10353884;28;87170;-59
2022/04/08 17:37:11;;;;;;;;;;;9.60;1.00;;;;;;10352039;28;84052;-60
2022/04/08 17:42:12;;;;;;;;;;;9.50;30.50;;;;;;10322904;28;84399;-60
2022/04/08 17:47:15;;;;;;;;;;;9.40;99.90;;;;;;10341394;28;84745;-61
2022/04/08 17:52:16;;;;;;;;;;;9.20;99.90;;;;;;10318276;28;86934;-56
2022/04/08 17:57:16;;;;;;;;;;;9.00;1.00;;;;;;10327458;28;84704;-55
2022/04/08 18:02:18;;;;;;;;;;;8.80;1.00;;;;;;10327811;28;88702;-57
2022/04/08 18:07:19;;;;;;;;;;;8.80;1.00;;;;;;10331327;28;84391;-59
2022/04/08 18:12:20;;;;;;;;;;;8.80;1.00;;;;;;10328120;28;84940;-51
2022/04/08 18:17:20;;;;;;;;;;;8.70;1.00;;;;;;10319050;28;85460;-56
2022/04/08 18:22:21;;;;;;;;;;;8.50;1.00;;;;;;10340666;28;84482;-55
2022/04/08 18:27:22;;;;;;;;;;;8.30;1.00;;;;;;10315401;28;84268;-60
2022/04/08 18:32:24;;;;;;;;;;;8.20;1.00;;;;;;10326623;28;84849;-61
2022/04/08 18:37:25;;;;;;;;;;;8.10;1.00;;;;;;10325463;28;85111;-59
2022/04/08 18:42:25;;;;;;;;;;;8.00;1.00;;;;;;10325005;28;84128;-59
2022/04/08 18:47:26;;;;;;;;;;;7.80;1.00;;;;;;10326375;28;87091;-49
2022/04/08 18:52:27;;;;;;;;;;;7.70;1.00;;;;;;10349293;28;84446;-60
2022/04/08 18:57:27;;;;;;;;;;;7.60;1.00;;;;;;10356533;28;84736;-48
2022/04/08 19:02:30;;;;;;;;;;;7.60;1.00;;;;;;10335386;28;84041;-45
2022/04/08 19:07:31;;;;;;;;;;;7.50;1.00;;;;;;10326764;28;84911;-45
2022/04/08 19:12:31;;;;;;;;;;;7.40;1.00;;;;;;10360024;28;85099;-45
2022/04/08 19:17:32;;;;;;;;;;;7.40;1.00;;;;;;10353386;28;84938;-48
2022/04/08 19:22:33;;;;;;;;;;;7.40;1.00;;;;;;10326530;28;84964;-46
2022/04/08 19:27:34;;;;;;;;;;;7.40;1.00;;;;;;10327983;28;84313;-46
2022/04/08 19:32:35;;;;;;;;;;;7.30;1.00;;;;;;10328581;28;85012;-51
2022/04/08 19:37:36;;;;;;;;;;;7.20;1.00;;;;;;10333783;28;84222;-46
2022/04/08 19:42:36;;;;;;;;;;;7.10;1.00;;;;;;10346801;28;84293;-46
2022/04/08 19:47:38;;;;;;;;;;;7.10;1.00;;;;;;10349450;28;84977;-52
2022/04/08 19:52:39;;;;;;;;;;;7.10;1.00;;;;;;10363493;28;84292;-49
2022/04/08 19:57:40;;;;;;;;;;;7.10;1.00;;;;;;10338583;28;84978;-54
2022/04/08 20:02:41;;;;;;;;;;;7.10;1.00;;;;;;10319133;28;84846;-47
2022/04/08 20:07:42;;;;;;;;;;;7.00;1.00;;;;;;10335847;28;84766;-43
2022/04/08 20:12:43;;;;;;;;;;;6.90;1.00;;;;;;10387826;22;84922;-51
2022/04/08 20:17:44;;;;;;;;;;;6.90;1.00;;;;;;10376563;28;84901;-51
2022/04/08 20:22:44;;;;;;;;;;;6.90;1.00;;;;;;10391864;28;85845;-53
2022/04/08 20:27:45;;;;;;;;;;;6.70;1.00;;;;;;10410022;28;84284;-51
2022/04/08 20:32:46;;;;;;;;;;;6.80;1.00;;;;;;10392726;28;85019;-49
2022/04/08 20:37:46;;;;;;;;;;;6.70;1.00;;;;;;10409599;28;84231;-54
2022/04/08 20:42:47;;;;;;;;;;;6.70;1.00;;;;;;10405747;28;85381;-53
2022/04/08 20:47:48;;;;;;;;;;;6.60;1.00;;;;;;10390953;28;85085;-50
2022/04/08 20:52:49;;;;;;;;;;;6.60;1.00;;;;;;10410165;28;84825;-51
2022/04/08 20:57:50;;;;;;;;;;;6.50;1.00;;;;;;10393155;28;84919;-50
2022/04/08 21:02:50;;;;;;;;;;;6.50;1.00;;;;;;10427004;28;84198;-52
2022/04/08 21:07:51;;;;;;;;;;;6.50;1.00;;;;;;10411285;28;84993;-51
2022/04/08 21:12:52;;;;;;;;;;;6.40;1.00;;;;;;10409196;28;85023;-53
2022/04/08 21:17:53;;;;;;;;;;;6.40;1.00;;;;;;10379406;28;84016;-50
2022/04/08 21:22:53;;;;;;;;;;;6.30;1.00;;;;;;10403082;28;84008;-51
2022/04/08 21:27:55;;;;;;;;;;;6.20;1.00;;;;;;10411728;28;84817;-50
2022/04/08 21:32:57;;;;;;;;;;;6.10;1.00;;;;;;10380861;28;84241;-48
2022/04/08 21:37:58;;;;;;;;;;;6.00;1.00;;;;;;10374636;28;84112;-47
2022/04/08 21:42:58;;;;;;;;;;;6.00;1.00;;;;;;10375690;28;84191;-49
2022/04/08 21:47:59;;;;;;;;;;;6.00;1.00;;;;;;10372658;28;86187;-48
2022/04/08 21:53:00;;;;;;;;;;;6.00;1.00;;;;;;10374389;28;84309;-51
2022/04/08 21:58:00;;;;;;;;;;;5.90;1.00;;;;;;10396863;28;87364;-52
2022/04/08 22:03:01;;;;;;;;;;;6.00;1.00;;;;;;10415523;28;84695;-49
2022/04/08 22:08:02;;;;;;;;;;;6.00;1.00;;;;;;10396849;28;84516;-49
2022/04/08 22:13:05;;;;;;;;;;;6.00;1.00;;;;;;10384439;28;84882;-52
2022/04/08 22:18:09;;;;;;;;;;;5.90;1.00;;;;;;10373507;28;84737;-48
2022/04/08 22:23:10;;;;;;;;;;;5.90;1.00;;;;;;10354199;28;84800;-48
2022/04/08 22:28:12;;;;;;;;;;;5.80;1.00;;;;;;10372075;28;84786;-48
2022/04/08 22:33:13;;;;;;;;;;;5.70;1.00;;;;;;10354773;28;84087;-48
2022/04/08 22:38:13;;;;;;;;;;;5.60;1.00;;;;;;10353292;28;83982;-48
2022/04/08 22:43:14;;;;;;;;;;;5.60;1.00;;;;;;10377533;28;84143;-49
2022/04/08 22:48:14;;;;;;;;;;;5.60;1.00;;;;;;10412343;28;84121;-48
2022/04/08 22:53:15;;;;;;;;;;;5.50;1.00;;;;;;10412203;28;84974;-50
2022/04/08 23:03:35;;;;;;;;;;;5.40;1.00;;;;;;10406707;28;84862;-49
2022/04/08 23:08:38;;;;;;;;;;;5.40;1.00;;;;;;10427416;28;84935;-49
2022/04/08 23:13:38;;;;;;;;;;;5.40;1.00;;;;;;10432609;28;84732;-50
2022/04/08 23:18:39;;;;;;;;;;;5.30;1.00;;;;;;10379543;28;84962;-51
2022/04/08 23:23:40;;;;;;;;;;;5.30;6.70;;;;;;10371762;28;84947;-50
2022/04/08 23:28:40;;;;;;;;;;;5.30;18.90;;;;;;10370065;28;85005;-48
2022/04/08 23:33:41;;;;;;;;;;;5.20;17.70;;;;;;10370938;28;84876;-48
2022/04/08 23:38:41;;;;;;;;;;;5.20;47.80;;;;;;10368433;28;84766;-52
2022/04/08 23:43:42;;;;;;;;;;;5.10;69.60;;;;;;10371869;28;84929;-50
2022/04/08 23:48:42;;;;;;;;;;;5.10;93.50;;;;;;10351365;28;84117;-52
2022/04/08 23:53:45;;;;;;;;;;;5.10;99.90;;;;;;10367339;28;85065;-50
2022/04/08 23:58:45;;;;;;;;;;;5.00;99.90;;;;;;10410238;28;84698;-48
